createdAt,value
2023-02-27T00:01:21.767Z,99370.90
2023-02-27T00:03:48.561Z,99371.19
2023-02-27T00:06:17.189Z,99375.06
2023-02-27T00:08:46.137Z,99382.00
2023-02-27T00:11:12.823Z,99390.40
2023-02-27T00:13:39.462Z,99387.63
2023-02-27T00:16:13.016Z,99393.74
2023-02-27T00:18:46.708Z,99390.55
2023-02-27T00:21:15.246Z,99387.00
2023-02-27T00:23:42.056Z,99388.70
2023-02-27T00:26:09.481Z,99397.23
2023-02-27T00:28:36.961Z,99399.23
2023-02-27T00:31:04.222Z,99404.90
2023-02-27T00:33:31.221Z,99401.36
2023-02-27T00:35:59.136Z,99410.05
2023-02-27T00:38:28.034Z,99414.95
2023-02-27T00:40:58.340Z,99425.82
2023-02-27T00:43:29.283Z,99424.50
2023-02-27T00:45:56.668Z,99432.42
2023-02-27T00:48:23.409Z,99437.30
2023-02-27T00:50:50.293Z,99445.70
2023-02-27T00:53:17.542Z,99450.05
2023-02-27T00:55:44.179Z,99454.17
2023-02-27T00:58:11.286Z,99453.46
2023-02-27T01:00:38.077Z,99453.13
2023-02-27T01:03:04.937Z,99460.00
2023-02-27T01:05:32.679Z,99468.96
2023-02-27T01:07:59.650Z,99468.59
2023-02-27T01:10:30.684Z,99474.11
2023-02-27T01:12:59.286Z,99476.55
2023-02-27T01:15:26.811Z,99483.16
2023-02-27T01:17:55.248Z,99487.48
2023-02-27T01:20:22.042Z,99482.02
2023-02-27T01:22:48.732Z,99487.88
2023-02-27T01:25:15.751Z,99488.89
2023-02-27T01:27:43.693Z,99492.31
2023-02-27T01:30:12.066Z,99493.05
2023-02-27T01:32:40.001Z,99492.91
2023-02-27T01:35:07.938Z,99490.80
2023-02-27T01:37:35.089Z,99490.46
2023-02-27T01:40:01.921Z,99488.64
2023-02-27T01:42:29.022Z,99486.70
2023-02-27T01:45:25.972Z,99483.29
2023-02-27T01:47:55.862Z,99479.99
2023-02-27T01:50:22.590Z,99479.74
2023-02-27T01:52:53.889Z,99485.39
2023-02-27T01:55:21.061Z,99479.16
2023-02-27T01:57:47.777Z,99476.77
2023-02-27T02:00:15.328Z,99480.46
2023-02-27T02:02:50.296Z,99478.35
2023-02-27T02:05:16.889Z,99485.48
2023-02-27T02:07:43.557Z,99483.84
2023-02-27T02:10:11.423Z,99483.39
2023-02-27T02:12:39.536Z,99481.50
2023-02-27T02:15:07.277Z,99486.02
2023-02-27T02:17:49.607Z,99494.95
2023-02-27T02:20:29.082Z,99499.27
2023-02-27T02:23:06.401Z,99501.98
2023-02-27T02:25:50.305Z,99502.60
2023-02-27T02:28:41.077Z,99501.64
2023-02-27T02:31:36.001Z,99507.63
2023-02-27T02:34:27.992Z,99510.48
2023-02-27T02:37:12.753Z,99510.65
2023-02-27T02:40:10.445Z,99518.36
2023-02-27T02:42:43.005Z,99526.03
2023-02-27T02:45:19.998Z,99533.19
2023-02-27T02:47:59.067Z,99537.50
2023-02-27T02:50:48.891Z,99542.16
2023-02-27T02:53:37.710Z,99541.68
2023-02-27T02:56:13.951Z,99541.70
2023-02-27T02:59:17.806Z,99543.36
2023-02-27T03:02:00.152Z,99548.18
2023-02-27T03:04:28.822Z,99546.14
2023-02-27T03:07:21.686Z,99553.52
2023-02-27T03:09:52.890Z,99558.61
2023-02-27T03:12:22.139Z,99557.55
2023-02-27T03:14:56.752Z,99560.11
2023-02-27T03:17:59.091Z,99563.13
2023-02-27T03:20:32.444Z,99567.32
2023-02-27T03:23:01.178Z,99571.39
2023-02-27T03:25:32.078Z,99571.90
2023-02-27T03:28:04.714Z,99575.44
2023-02-27T03:30:35.901Z,99579.31
2023-02-27T03:33:37.856Z,99587.71
2023-02-27T03:36:19.546Z,99586.77
2023-02-27T03:38:52.470Z,99591.11
2023-02-27T03:41:35.247Z,99594.04
2023-02-27T03:44:32.447Z,99596.09
2023-02-27T03:46:59.179Z,99595.76
2023-02-27T03:49:25.838Z,99596.15
2023-02-27T03:51:52.835Z,99596.42
2023-02-27T03:54:26.707Z,99597.45
2023-02-27T03:56:55.457Z,99597.70
2023-02-27T03:59:25.511Z,99602.27
2023-02-27T04:01:52.847Z,99608.20
2023-02-27T04:04:19.668Z,99607.45
2023-02-27T04:07:29.533Z,99608.17
2023-02-27T04:10:15.744Z,99615.77
2023-02-27T04:12:52.684Z,99620.67
2023-02-27T04:15:43.488Z,99621.25
2023-02-27T04:18:48.065Z,99620.58
2023-02-27T04:21:29.361Z,99621.92
2023-02-27T04:24:05.444Z,99625.06
2023-02-27T04:27:01.536Z,99632.73
2023-02-27T04:29:49.633Z,99635.48
2023-02-27T04:32:25.856Z,99637.08
2023-02-27T04:35:01.307Z,99639.63
2023-02-27T04:37:31.238Z,99644.11
2023-02-27T04:40:01.171Z,99641.58
2023-02-27T04:42:30.770Z,99648.38
2023-02-27T04:45:05.582Z,99651.60
2023-02-27T04:47:38.079Z,99651.58
2023-02-27T04:50:12.122Z,99653.41
2023-02-27T04:52:41.323Z,99661.69
2023-02-27T04:55:14.528Z,99659.39
2023-02-27T04:57:51.895Z,99667.11
2023-02-27T05:00:19.953Z,99668.63
2023-02-27T05:02:52.850Z,99675.52
2023-02-27T05:05:22.852Z,99683.71
2023-02-27T05:07:54.068Z,99683.91
2023-02-27T05:10:26.129Z,99690.79
2023-02-27T05:12:57.757Z,99697.05
2023-02-27T05:15:26.700Z,99702.70
2023-02-27T05:18:06.662Z,99710.65
2023-02-27T05:21:02.081Z,99715.45
2023-02-27T05:23:35.503Z,99719.02
2023-02-27T05:26:18.084Z,99721.60
2023-02-27T05:28:59.295Z,99723.73
2023-02-27T05:31:30.589Z,99724.71
2023-02-27T05:34:17.370Z,99729.90
2023-02-27T05:37:32.074Z,99730.58
2023-02-27T05:39:58.852Z,99733.86
2023-02-27T05:42:31.629Z,99737.16
2023-02-27T05:45:02.482Z,99739.86
2023-02-27T05:47:30.552Z,99738.82
2023-02-27T05:50:01.782Z,99739.27
2023-02-27T05:52:29.107Z,99742.64
2023-02-27T05:55:02.756Z,99741.38
2023-02-27T05:57:39.968Z,99741.90
2023-02-27T06:00:30.336Z,99744.00
2023-02-27T06:02:57.449Z,99741.31
2023-02-27T06:05:24.276Z,99740.98
2023-02-27T06:07:51.236Z,99747.67
2023-02-27T06:10:19.079Z,99753.03
2023-02-27T06:12:45.891Z,99754.71
2023-02-27T06:15:13.230Z,99758.02
2023-02-27T06:17:42.970Z,99758.96
2023-02-27T06:20:10.659Z,99761.11
2023-02-27T06:22:37.408Z,99750.52
2023-02-27T06:25:04.671Z,99752.71
2023-02-27T06:27:32.266Z,99746.50
2023-02-27T06:30:02.091Z,99753.36
2023-02-27T06:32:29.578Z,99762.72
2023-02-27T06:34:58.062Z,99758.25
2023-02-27T06:37:25.010Z,99758.16
2023-02-27T06:39:52.020Z,99766.95
2023-02-27T06:42:19.489Z,99773.82
2023-02-27T06:44:46.463Z,99768.79
2023-02-27T06:47:15.119Z,99775.95
2023-02-27T06:49:41.996Z,99778.30
2023-02-27T06:52:08.960Z,99783.23
2023-02-27T06:54:36.492Z,99783.33
2023-02-27T06:57:03.371Z,99779.06
2023-02-27T06:59:30.444Z,99780.54
2023-02-27T07:01:58.628Z,99782.27
2023-02-27T07:04:25.675Z,99783.67
2023-02-27T07:07:36.064Z,99783.60
2023-02-27T07:09:42.112Z,99790.12
2023-02-27T07:12:08.902Z,99795.39
2023-02-27T07:14:35.792Z,99798.99
2023-02-27T07:17:04.070Z,99805.55
2023-02-27T07:19:33.231Z,99812.21
2023-02-27T07:22:00.428Z,99820.09
2023-02-27T07:24:27.604Z,99821.73
2023-02-27T07:26:57.633Z,99820.45
2023-02-27T07:29:24.748Z,99821.92
2023-02-27T07:31:52.340Z,99824.02
2023-02-27T07:34:19.272Z,99819.79
2023-02-27T07:36:46.884Z,99809.64
2023-02-27T07:39:14.132Z,99813.02
2023-02-27T07:41:40.848Z,99816.55
2023-02-27T07:44:10.733Z,99820.08
2023-02-27T07:46:37.565Z,99822.94
2023-02-27T07:49:04.317Z,99826.90
2023-02-27T07:51:31.935Z,99824.38
2023-02-27T07:53:59.307Z,99824.90
2023-02-27T07:56:32.895Z,99816.19
2023-02-27T07:59:25.618Z,99812.04
2023-02-27T08:01:52.810Z,99817.77
2023-02-27T08:04:21.712Z,99821.50
2023-02-27T08:06:48.819Z,99825.13
2023-02-27T08:09:16.308Z,99833.29
2023-02-27T08:11:44.365Z,99831.42
2023-02-27T08:14:12.287Z,99833.84
2023-02-27T08:16:40.570Z,99837.63
2023-02-27T08:19:08.839Z,99836.02
2023-02-27T08:21:36.523Z,99834.73
2023-02-27T08:24:03.906Z,99834.26
2023-02-27T08:26:31.295Z,99835.65
2023-02-27T08:28:59.561Z,99847.63
2023-02-27T08:31:27.567Z,99846.10
2023-02-27T08:34:04.414Z,99850.16
2023-02-27T08:36:37.731Z,99852.05
2023-02-27T08:39:06.195Z,99847.93
2023-02-27T08:41:33.888Z,99848.41
2023-02-27T08:44:01.448Z,99852.60
2023-02-27T08:46:29.998Z,99857.36
2023-02-27T08:48:57.793Z,99859.47
2023-02-27T08:51:25.441Z,99858.77
2023-02-27T08:53:55.483Z,99861.02
2023-02-27T08:56:22.295Z,99858.20
2023-02-27T08:58:49.187Z,99858.52
2023-02-27T09:01:17.010Z,99855.38
2023-02-27T09:03:44.198Z,99859.61
2023-02-27T09:06:11.116Z,99858.73
2023-02-27T09:08:41.303Z,99863.11
2023-02-27T09:11:08.362Z,99861.89
2023-02-27T09:13:35.754Z,99859.91
2023-02-27T09:16:07.398Z,99856.88
2023-02-27T09:18:37.692Z,99848.81
2023-02-27T09:21:04.908Z,99855.27
2023-02-27T09:23:32.028Z,99851.01
2023-02-27T09:25:59.266Z,99851.22
2023-02-27T09:28:29.511Z,99848.85
2023-02-27T09:31:05.022Z,99844.73
2023-02-27T09:33:33.185Z,99854.11
2023-02-27T09:36:05.258Z,99857.02
2023-02-27T09:38:33.968Z,99857.13
2023-02-27T09:41:02.466Z,99861.26
2023-02-27T09:43:48.039Z,99864.11
2023-02-27T09:46:20.589Z,99872.36
2023-02-27T09:48:52.840Z,99871.77
2023-02-27T09:51:20.097Z,99876.27
2023-02-27T09:53:50.900Z,99877.38
2023-02-27T09:56:55.049Z,99876.74
2023-02-27T09:59:31.140Z,99874.84
2023-02-27T10:02:01.050Z,99877.33
2023-02-27T10:04:43.793Z,99876.05
2023-02-27T10:07:16.040Z,99873.73
2023-02-27T10:10:20.795Z,99877.66
2023-02-27T10:13:15.255Z,99874.21
2023-02-27T10:15:52.353Z,99876.53
2023-02-27T10:18:28.304Z,99878.30
2023-02-27T10:21:05.888Z,99877.95
2023-02-27T10:23:44.172Z,99879.77
2023-02-27T10:26:21.758Z,99887.15
2023-02-27T10:28:48.896Z,99893.48
2023-02-27T10:35:51.522Z,99898.92
2023-02-27T10:38:26.422Z,99901.10
2023-02-27T10:40:53.809Z,99901.41
2023-02-27T10:43:21.063Z,99903.44
2023-02-27T10:45:48.639Z,99904.21
2023-02-27T10:48:18.955Z,99901.04
2023-02-27T10:50:51.376Z,99896.65
2023-02-27T10:53:22.554Z,99898.66
2023-02-27T10:56:02.389Z,99897.20
2023-02-27T10:58:34.153Z,99890.45
2023-02-27T11:01:05.941Z,99893.52
2023-02-27T11:03:40.939Z,99891.38
2023-02-27T11:06:08.628Z,99890.30
2023-02-27T11:08:35.735Z,99897.02
2023-02-27T11:11:11.536Z,99894.16
2023-02-27T11:13:42.629Z,99894.73
2023-02-27T11:16:11.002Z,99885.66
2023-02-27T11:18:44.864Z,99886.94
2023-02-27T11:21:12.125Z,99891.23
2023-02-27T11:23:50.189Z,99892.23
2023-02-27T11:26:20.897Z,99893.10
2023-02-27T11:29:04.075Z,99891.83
2023-02-27T11:31:35.819Z,99892.46
2023-02-27T11:34:04.258Z,99891.59
2023-02-27T11:36:48.097Z,99897.75
2023-02-27T11:39:33.908Z,99897.14
2023-02-27T11:42:18.360Z,99899.73
2023-02-27T11:44:51.020Z,99901.42
2023-02-27T11:47:27.390Z,99902.11
2023-02-27T11:50:03.602Z,99902.73
2023-02-27T11:52:37.152Z,99903.75
2023-02-27T11:55:04.544Z,99898.61
2023-02-27T11:57:34.475Z,99902.40
2023-02-27T12:00:06.251Z,99901.41
2023-02-27T12:02:58.195Z,99902.30
2023-02-27T12:05:33.010Z,99904.98
2023-02-27T12:08:26.760Z,99905.17
2023-02-27T12:11:33.691Z,99907.90
2023-02-27T12:14:24.129Z,99908.35
2023-02-27T12:17:20.911Z,99907.16
2023-02-27T12:20:24.271Z,99906.48
2023-02-27T12:22:52.835Z,99910.73
2023-02-27T12:25:23.000Z,99915.24
2023-02-27T12:28:08.705Z,99917.11
2023-02-27T12:30:42.789Z,99926.87
2023-02-27T12:33:15.623Z,99926.45
2023-02-27T12:35:42.657Z,99923.33
2023-02-27T12:38:11.645Z,99927.45
2023-02-27T12:40:46.655Z,99927.75
2023-02-27T12:43:28.140Z,99931.39
2023-02-27T12:46:01.129Z,99936.48
2023-02-27T12:48:53.882Z,99935.58
2023-02-27T12:51:27.257Z,99940.24
2023-02-27T12:54:03.249Z,99946.48
2023-02-27T12:56:52.118Z,99947.52
2023-02-27T12:59:27.786Z,99945.48
2023-02-27T13:02:13.499Z,99948.27
2023-02-27T13:04:48.185Z,99946.05
2023-02-27T13:07:23.916Z,99948.59
2023-02-27T13:09:58.786Z,99951.02
2023-02-27T13:12:46.852Z,99950.38
2023-02-27T13:15:52.906Z,99954.95
2023-02-27T13:18:35.962Z,99953.13
2023-02-27T13:21:12.213Z,99952.29
2023-02-27T13:23:48.810Z,99952.43
2023-02-27T13:26:31.648Z,99949.33
2023-02-27T13:29:00.370Z,99947.79
2023-02-27T13:31:48.141Z,99945.67
2023-02-27T13:34:33.958Z,99949.23
2023-02-27T13:37:02.854Z,99950.78
2023-02-27T13:40:00.923Z,99953.50
2023-02-27T13:42:29.586Z,99953.33
2023-02-27T13:44:57.555Z,99955.52
2023-02-27T13:47:30.370Z,99956.66
2023-02-27T13:49:58.978Z,99956.27
2023-02-27T13:52:33.112Z,99956.25
2023-02-27T13:55:11.244Z,99962.84
2023-02-27T13:57:38.607Z,99962.31
2023-02-27T14:00:20.630Z,99966.90
2023-02-27T14:02:59.193Z,99963.99
2023-02-27T14:05:38.450Z,99968.09
2023-02-27T14:08:05.597Z,99968.48
2023-02-27T14:10:33.632Z,99967.32
2023-02-27T14:13:03.011Z,99965.56
2023-02-27T14:15:30.475Z,99970.19
2023-02-27T14:18:12.336Z,99967.90
2023-02-27T14:20:43.127Z,99974.00
2023-02-27T14:23:16.604Z,99970.81
2023-02-27T14:26:11.090Z,99969.63
2023-02-27T14:28:51.147Z,99967.92
2023-02-27T14:31:23.785Z,99968.42
2023-02-27T14:33:54.500Z,99965.70
2023-02-27T14:36:23.316Z,99968.51
2023-02-27T14:38:50.368Z,99969.23
2023-02-27T14:41:24.212Z,99969.44
2023-02-27T14:43:57.882Z,99972.17
2023-02-27T14:46:35.424Z,99971.55
2023-02-27T14:49:07.170Z,99979.83
2023-02-27T14:51:35.379Z,99975.38
2023-02-27T14:54:05.900Z,99975.75
2023-02-27T14:56:33.464Z,99983.89
2023-02-27T14:59:07.477Z,99988.16
2023-02-27T15:01:35.234Z,99995.34
2023-02-27T15:04:02.115Z,99997.97
2023-02-27T15:06:40.455Z,100001.48
2023-02-27T15:09:30.976Z,100009.94
2023-02-27T15:12:03.917Z,100012.88
2023-02-27T15:14:34.181Z,100017.02
2023-02-27T15:17:01.058Z,100017.80
2023-02-27T15:19:29.028Z,100020.84
2023-02-27T15:22:03.430Z,100022.28
2023-02-27T15:24:49.332Z,100024.23
2023-02-27T15:27:20.590Z,100029.13
2023-02-27T15:29:54.637Z,100034.52
2023-02-27T15:32:39.576Z,100039.38
2023-02-27T15:35:19.805Z,100037.02
2023-02-27T15:37:54.952Z,100040.55
2023-02-27T15:40:24.580Z,100045.38
2023-02-27T15:42:52.229Z,100052.21
2023-02-27T15:45:22.811Z,100050.60
2023-02-27T15:47:50.149Z,100055.70
2023-02-27T15:50:18.488Z,100057.28
2023-02-27T15:53:08.666Z,100062.20
2023-02-27T15:55:39.228Z,100066.23
2023-02-27T15:58:31.064Z,100072.86
2023-02-27T16:01:01.294Z,100081.81
2023-02-27T16:03:32.470Z,100084.29
2023-02-27T16:06:00.405Z,100090.84
2023-02-27T16:08:27.707Z,100095.35
2023-02-27T16:10:57.642Z,100097.59
2023-02-27T16:13:38.545Z,100098.58
2023-02-27T16:16:21.888Z,100103.92
2023-02-27T16:18:58.831Z,100106.53
2023-02-27T16:21:28.585Z,100113.13
2023-02-27T16:24:20.508Z,100116.38
2023-02-27T16:26:51.436Z,100121.73
2023-02-27T16:29:23.915Z,100123.74
2023-02-27T16:31:55.092Z,100126.52
2023-02-27T16:34:50.132Z,100127.86
2023-02-27T16:37:29.617Z,100131.36
2023-02-27T16:40:01.047Z,100136.53
2023-02-27T16:42:31.618Z,100140.48
2023-02-27T16:45:02.588Z,100142.85
2023-02-27T16:47:33.596Z,100143.27
2023-02-27T16:50:04.516Z,100142.14
2023-02-27T16:52:34.310Z,100139.45
2023-02-27T16:55:07.576Z,100144.17
2023-02-27T16:57:36.280Z,100144.10
2023-02-27T17:00:08.708Z,100143.92
2023-02-27T17:02:39.591Z,100147.92
2023-02-27T17:05:09.124Z,100153.83
2023-02-27T17:07:41.618Z,100154.96
2023-02-27T17:10:21.628Z,100157.98
2023-02-27T17:12:52.687Z,100158.61
2023-02-27T17:15:23.176Z,100163.38
2023-02-27T17:17:52.875Z,100167.95
2023-02-27T17:28:28.050Z,100179.27
2023-02-27T17:30:55.618Z,100181.45
2023-02-27T17:33:22.824Z,100185.78
2023-02-27T17:36:04.520Z,100189.40
2023-02-27T17:38:32.894Z,100192.96
2023-02-27T17:41:07.018Z,100197.16
2023-02-27T17:43:34.221Z,100203.52
2023-02-27T17:46:07.148Z,100206.39
2023-02-27T17:48:35.031Z,100206.51
2023-02-27T17:51:09.591Z,100213.54
2023-02-27T17:53:36.624Z,100216.91
2023-02-27T17:56:04.109Z,100225.16
2023-02-27T17:58:33.302Z,100226.50
2023-02-27T18:01:11.638Z,100230.56
2023-02-27T18:03:39.872Z,100238.28
2023-02-27T18:06:07.099Z,100241.93
2023-02-27T18:08:34.636Z,100245.90
2023-02-27T18:11:01.782Z,100242.88
2023-02-27T18:13:28.919Z,100241.48
2023-02-27T18:15:56.752Z,100244.58
2023-02-27T18:18:23.762Z,100254.52
2023-02-27T18:21:01.389Z,100255.62
2023-02-27T18:23:28.635Z,100261.76
2023-02-27T18:25:56.253Z,100265.53
2023-02-27T18:28:24.884Z,100263.98
2023-02-27T18:30:51.896Z,100268.56
2023-02-27T18:33:19.190Z,100273.50
2023-02-27T18:35:46.360Z,100275.63
2023-02-27T18:38:13.338Z,100283.29
2023-02-27T18:40:40.275Z,100283.05
2023-02-27T18:43:07.211Z,100288.98
2023-02-27T18:45:35.835Z,100290.77
2023-02-27T18:48:02.967Z,100295.27
2023-02-27T18:50:30.313Z,100297.23
2023-02-27T18:52:58.664Z,100300.77
2023-02-27T18:55:25.575Z,100305.89
2023-02-27T18:57:53.014Z,100307.67
2023-02-27T19:00:21.208Z,100308.29
2023-02-27T19:02:47.970Z,100312.45
2023-02-27T19:05:14.806Z,100316.63
2023-02-27T19:07:41.918Z,100312.58
2023-02-27T19:10:09.789Z,100315.61
2023-02-27T19:12:36.556Z,100311.88
2023-02-27T19:15:04.763Z,100310.21
2023-02-27T19:17:32.989Z,100306.84
2023-02-27T19:19:59.965Z,100299.98
2023-02-27T19:22:28.928Z,100299.88
2023-02-27T19:24:56.484Z,100297.59
2023-02-27T19:27:23.200Z,100304.40
2023-02-27T19:29:52.229Z,100305.66
2023-02-27T19:32:19.095Z,100317.55
2023-02-27T19:34:46.050Z,100322.83
2023-02-27T19:37:15.535Z,100327.55
2023-02-27T19:39:42.604Z,100329.83
2023-02-27T19:42:09.681Z,100330.06
2023-02-27T19:44:36.396Z,100330.59
2023-02-27T19:47:03.858Z,100332.17
2023-02-27T19:49:31.305Z,100337.77
2023-02-27T19:51:58.458Z,100336.87
2023-02-27T19:54:25.280Z,100337.16
2023-02-27T19:56:53.778Z,100339.98
2023-02-27T19:59:23.212Z,100342.93
2023-02-27T20:01:50.435Z,100339.63
2023-02-27T20:04:18.315Z,100333.75
2023-02-27T20:06:46.443Z,100338.77
2023-02-27T20:09:14.843Z,100343.09
2023-02-27T20:11:44.113Z,100347.95
2023-02-27T20:14:13.264Z,100355.55
2023-02-27T20:16:40.390Z,100357.30
2023-02-27T20:19:09.528Z,100360.83
2023-02-27T20:21:36.344Z,100363.98
2023-02-27T20:24:03.900Z,100366.39
2023-02-27T20:26:38.572Z,100372.44
2023-02-27T20:29:10.159Z,100374.54
2023-02-27T20:31:38.228Z,100372.88
2023-02-27T20:34:10.429Z,100371.08
2023-02-27T20:36:38.983Z,100370.98
2023-02-27T20:39:06.425Z,100371.34
2023-02-27T20:41:36.943Z,100371.04
2023-02-27T20:44:04.688Z,100371.76
2023-02-27T20:46:32.068Z,100371.43
2023-02-27T20:49:01.440Z,100372.13
2023-02-27T20:51:34.382Z,100372.99
2023-02-27T20:54:02.449Z,100369.92
2023-02-27T20:56:32.502Z,100371.05
2023-02-27T20:59:01.395Z,100378.05
2023-02-27T21:01:28.704Z,100381.19
2023-02-27T21:03:56.660Z,100380.73
2023-02-27T21:06:23.531Z,100385.92
2023-02-27T21:08:53.320Z,100387.69
2023-02-27T21:11:21.079Z,100391.91
2023-02-27T21:13:47.863Z,100394.36
2023-02-27T21:16:15.579Z,100401.11
2023-02-27T21:18:42.444Z,100402.34
2023-02-27T21:21:11.691Z,100406.61
2023-02-27T21:23:41.662Z,100405.21
2023-02-27T21:26:19.978Z,100409.56
2023-02-27T21:29:01.477Z,100405.95
2023-02-27T21:31:30.500Z,100408.34
2023-02-27T21:33:58.769Z,100403.33
2023-02-27T21:36:26.780Z,100402.86
2023-02-27T21:39:15.130Z,100404.13
2023-02-27T21:41:44.921Z,100404.18
2023-02-27T21:44:13.451Z,100403.55
2023-02-27T21:46:40.172Z,100407.20
2023-02-27T21:49:06.892Z,100402.36
2023-02-27T21:51:40.565Z,100401.50
2023-02-27T21:54:10.028Z,100402.62
2023-02-27T21:56:37.243Z,100400.08
2023-02-27T21:59:04.738Z,100405.45
2023-02-27T22:01:32.878Z,100406.51
2023-02-27T22:04:01.302Z,100409.25
2023-02-27T22:06:31.445Z,100409.05
2023-02-27T22:08:59.725Z,100412.32
2023-02-27T22:11:28.266Z,100416.58
2023-02-27T22:13:55.241Z,100420.46
2023-02-27T22:16:22.562Z,100426.42
2023-02-27T22:18:49.670Z,100430.68
2023-02-27T22:21:22.118Z,100428.92
2023-02-27T22:23:48.935Z,100431.41
2023-02-27T22:26:23.603Z,100433.71
2023-02-27T22:28:51.342Z,100433.44
2023-02-27T22:31:23.774Z,100431.74
2023-02-27T22:33:52.016Z,100434.03
2023-02-27T22:36:23.439Z,100434.92
2023-02-27T22:38:50.320Z,100433.09
2023-02-27T22:41:22.896Z,100428.70
2023-02-27T22:43:49.866Z,100429.67
2023-02-27T22:46:23.151Z,100428.57
2023-02-27T22:48:58.387Z,100428.17
2023-02-27T22:51:28.003Z,100426.77
2023-02-27T22:53:59.851Z,100432.73
2023-02-27T22:56:26.950Z,100427.98
2023-02-27T22:58:53.681Z,100424.90
2023-02-27T23:01:27.983Z,100419.40
2023-02-27T23:03:56.800Z,100421.73
2023-02-27T23:06:27.048Z,100425.96
2023-02-27T23:08:53.836Z,100422.65
2023-02-27T23:11:21.568Z,100421.52
2023-02-27T23:13:49.037Z,100424.83
2023-02-27T23:16:16.966Z,100424.17
2023-02-27T23:18:48.505Z,100422.48
2023-02-27T23:21:16.528Z,100422.48
2023-02-27T23:23:43.348Z,100421.29
2023-02-27T23:26:10.404Z,100420.64
2023-02-27T23:28:37.555Z,100418.89
2023-02-27T23:31:05.405Z,100416.98
2023-02-27T23:33:32.293Z,100413.89
2023-02-27T23:36:00.314Z,100419.30
2023-02-27T23:38:27.432Z,100416.31
2023-02-27T23:40:54.089Z,100418.50
2023-02-27T23:43:21.564Z,100423.36
2023-02-27T23:45:48.635Z,100428.17
2023-02-27T23:48:16.013Z,100430.63
2023-02-27T23:50:43.277Z,100429.08
2023-02-27T23:53:12.715Z,100430.76
2023-02-27T23:55:39.644Z,100430.75
2023-02-27T23:58:08.537Z,100425.18
